Korbel, California
Current Conditions -  °F | °C
As of 9:53 AM on Thursday 30 Oct 2014 (Local Time) from KACV Reporting Station
Broken Clouds Broken Clouds  
Wind Chill: 62°   Ceiling: 1700
Heat Index: 62°   Visibility: 10mi
Dew Point: 59°   Wind: 0mph
Humidity: 90%   Direction: NA
Pressure: 29.91"   Gusts: NA
Location:  40.87°N, 123.96°W
Report Text: KACV 301653Z AUTO 00000KT 10SM BKN017 17/15 A2991 RMK AO2 SLP132 T01670150
Loading
Personal Weather Stations






























Interactive Weather Map
Tropical Storm Tracking
New forecast layout! Learn more

10-Day Weather Forecast

Advertisements
Track Severe Weather on mobile